sensor_id;sensor_type;location;lat;lon;timestamp;P1;durP1;ratioP1;P2;durP2;ratioP2
72132;SDS011;60008;50.826;6.896;2022-09-24T00:00:46;7.97;;;3.15;;
72132;SDS011;60008;50.826;6.896;2022-09-24T00:03:35;5.07;;;2.70;;
72132;SDS011;60008;50.826;6.896;2022-09-24T00:06:21;7.63;;;3.20;;
72132;SDS011;60008;50.826;6.896;2022-09-24T00:09:06;6.45;;;2.78;;
72132;SDS011;60008;50.826;6.896;2022-09-24T00:11:52;6.13;;;2.90;;
72132;SDS011;60008;50.826;6.896;2022-09-24T00:14:37;6.97;;;2.92;;
72132;SDS011;60008;50.826;6.896;2022-09-24T00:17:22;7.60;;;2.90;;
72132;SDS011;60008;50.826;6.896;2022-09-24T00:20:07;5.50;;;2.70;;
72132;SDS011;60008;50.826;6.896;2022-09-24T00:22:52;6.43;;;2.90;;
72132;SDS011;60008;50.826;6.896;2022-09-24T00:25:44;7.80;;;2.83;;
72132;SDS011;60008;50.826;6.896;2022-09-24T00:28:49;6.65;;;2.97;;
72132;SDS011;60008;50.826;6.896;2022-09-24T00:31:35;11.17;;;3.30;;
72132;SDS011;60008;50.826;6.896;2022-09-24T00:34:20;7.93;;;3.40;;
72132;SDS011;60008;50.826;6.896;2022-09-24T00:37:05;5.35;;;2.90;;
72132;SDS011;60008;50.826;6.896;2022-09-24T00:39:50;7.90;;;3.15;;
72132;SDS011;60008;50.826;6.896;2022-09-24T00:42:35;8.10;;;3.10;;
72132;SDS011;60008;50.826;6.896;2022-09-24T00:45:20;5.10;;;2.90;;
72132;SDS011;60008;50.826;6.896;2022-09-24T00:48:06;5.82;;;2.83;;
72132;SDS011;60008;50.826;6.896;2022-09-24T00:50:51;9.02;;;3.28;;
72132;SDS011;60008;50.826;6.896;2022-09-24T00:53:37;5.82;;;3.10;;
72132;SDS011;60008;50.826;6.896;2022-09-24T00:56:22;5.78;;;3.00;;
72132;SDS011;60008;50.826;6.896;2022-09-24T00:59:08;9.43;;;3.20;;
72132;SDS011;60008;50.826;6.896;2022-09-24T01:01:55;8.00;;;2.80;;
72132;SDS011;60008;50.826;6.896;2022-09-24T01:04:43;7.05;;;3.17;;
72132;SDS011;60008;50.826;6.896;2022-09-24T01:07:28;8.27;;;3.10;;
72132;SDS011;60008;50.826;6.896;2022-09-24T01:10:13;8.07;;;3.03;;
72132;SDS011;60008;50.826;6.896;2022-09-24T01:13:25;5.10;;;2.87;;
72132;SDS011;60008;50.826;6.896;2022-09-24T01:29:41;10.53;;;3.20;;
72132;SDS011;60008;50.826;6.896;2022-09-24T01:35:26;7.43;;;3.20;;
72132;SDS011;60008;50.826;6.896;2022-09-24T01:38:17;6.03;;;2.92;;
72132;SDS011;60008;50.826;6.896;2022-09-24T01:41:08;4.75;;;3.08;;
72132;SDS011;60008;50.826;6.896;2022-09-24T01:43:56;6.70;;;3.07;;
72132;SDS011;60008;50.826;6.896;2022-09-24T01:46:42;9.60;;;3.10;;
72132;SDS011;60008;50.826;6.896;2022-09-24T01:49:27;5.85;;;2.95;;
72132;SDS011;60008;50.826;6.896;2022-09-24T01:52:13;6.35;;;3.05;;
72132;SDS011;60008;50.826;6.896;2022-09-24T01:55:03;8.48;;;3.35;;
72132;SDS011;60008;50.826;6.896;2022-09-24T01:57:53;6.30;;;2.87;;
72132;SDS011;60008;50.826;6.896;2022-09-24T02:00:44;7.70;;;3.20;;
72132;SDS011;60008;50.826;6.896;2022-09-24T02:03:35;6.80;;;3.75;;
72132;SDS011;60008;50.826;6.896;2022-09-24T02:09:42;7.25;;;3.72;;
72132;SDS011;60008;50.826;6.896;2022-09-24T02:12:30;6.07;;;3.40;;
72132;SDS011;60008;50.826;6.896;2022-09-24T02:15:27;6.20;;;3.55;;
72132;SDS011;60008;50.826;6.896;2022-09-24T02:18:17;7.03;;;3.65;;
72132;SDS011;60008;50.826;6.896;2022-09-24T02:21:12;9.57;;;3.30;;
72132;SDS011;60008;50.826;6.896;2022-09-24T02:24:04;7.07;;;3.50;;
72132;SDS011;60008;50.826;6.896;2022-09-24T02:27:10;6.70;;;3.10;;
72132;SDS011;60008;50.826;6.896;2022-09-24T02:29:56;8.10;;;3.65;;
72132;SDS011;60008;50.826;6.896;2022-09-24T02:32:43;7.57;;;3.90;;
72132;SDS011;60008;50.826;6.896;2022-09-24T02:35:28;7.22;;;3.67;;
72132;SDS011;60008;50.826;6.896;2022-09-24T02:38:16;9.07;;;3.55;;
72132;SDS011;60008;50.826;6.896;2022-09-24T02:41:01;12.00;;;3.37;;
72132;SDS011;60008;50.826;6.896;2022-09-24T02:43:47;8.13;;;3.75;;
72132;SDS011;60008;50.826;6.896;2022-09-24T02:46:32;6.15;;;3.38;;
72132;SDS011;60008;50.826;6.896;2022-09-24T02:49:16;11.68;;;5.32;;
72132;SDS011;60008;50.826;6.896;2022-09-24T02:52:02;8.90;;;3.65;;
72132;SDS011;60008;50.826;6.896;2022-09-24T02:54:48;7.07;;;3.50;;
72132;SDS011;60008;50.826;6.896;2022-09-24T02:57:36;8.13;;;3.85;;
72132;SDS011;60008;50.826;6.896;2022-09-24T03:00:21;8.38;;;3.78;;
72132;SDS011;60008;50.826;6.896;2022-09-24T03:03:06;7.85;;;3.85;;
72132;SDS011;60008;50.826;6.896;2022-09-24T03:05:51;7.30;;;3.67;;
72132;SDS011;60008;50.826;6.896;2022-09-24T03:08:39;7.53;;;3.90;;
72132;SDS011;60008;50.826;6.896;2022-09-24T03:11:26;8.18;;;3.30;;
72132;SDS011;60008;50.826;6.896;2022-09-24T03:14:10;7.90;;;3.60;;
72132;SDS011;60008;50.826;6.896;2022-09-24T03:16:55;5.88;;;3.60;;
72132;SDS011;60008;50.826;6.896;2022-09-24T03:19:40;7.20;;;3.60;;
72132;SDS011;60008;50.826;6.896;2022-09-24T03:22:25;6.53;;;3.47;;
72132;SDS011;60008;50.826;6.896;2022-09-24T03:25:10;9.05;;;3.42;;
72132;SDS011;60008;50.826;6.896;2022-09-24T03:27:55;7.00;;;3.70;;
72132;SDS011;60008;50.826;6.896;2022-09-24T03:30:40;7.85;;;3.75;;
72132;SDS011;60008;50.826;6.896;2022-09-24T03:33:44;7.40;;;3.50;;
72132;SDS011;60008;50.826;6.896;2022-09-24T03:36:31;9.47;;;3.77;;
72132;SDS011;60008;50.826;6.896;2022-09-24T03:39:16;8.48;;;3.85;;
72132;SDS011;60008;50.826;6.896;2022-09-24T03:42:01;6.70;;;3.40;;
72132;SDS011;60008;50.826;6.896;2022-09-24T03:44:46;9.50;;;4.10;;
72132;SDS011;60008;50.826;6.896;2022-09-24T03:47:31;8.65;;;3.60;;
72132;SDS011;60008;50.826;6.896;2022-09-24T03:50:17;5.87;;;3.37;;
72132;SDS011;60008;50.826;6.896;2022-09-24T03:53:02;8.50;;;3.38;;
72132;SDS011;60008;50.826;6.896;2022-09-24T03:55:51;6.00;;;3.42;;
72132;SDS011;60008;50.826;6.896;2022-09-24T03:58:38;6.50;;;3.38;;
72132;SDS011;60008;50.826;6.896;2022-09-24T04:01:23;10.18;;;3.72;;
72132;SDS011;60008;50.826;6.896;2022-09-24T04:04:08;7.53;;;3.57;;
72132;SDS011;60008;50.826;6.896;2022-09-24T04:06:54;5.18;;;3.40;;
72132;SDS011;60008;50.826;6.896;2022-09-24T04:09:39;9.35;;;3.75;;
72132;SDS011;60008;50.826;6.896;2022-09-24T04:12:24;7.45;;;3.60;;
72132;SDS011;60008;50.826;6.896;2022-09-24T04:15:10;6.05;;;3.60;;
72132;SDS011;60008;50.826;6.896;2022-09-24T04:17:56;8.10;;;3.40;;
72132;SDS011;60008;50.826;6.896;2022-09-24T04:20:42;6.85;;;3.50;;
72132;SDS011;60008;50.826;6.896;2022-09-24T04:23:27;7.95;;;3.60;;
72132;SDS011;60008;50.826;6.896;2022-09-24T04:26:15;9.30;;;3.90;;
72132;SDS011;60008;50.826;6.896;2022-09-24T04:29:00;6.95;;;3.70;;
72132;SDS011;60008;50.826;6.896;2022-09-24T04:31:46;7.03;;;3.83;;
72132;SDS011;60008;50.826;6.896;2022-09-24T04:34:31;6.63;;;3.53;;
72132;SDS011;60008;50.826;6.896;2022-09-24T04:37:16;7.05;;;3.70;;
72132;SDS011;60008;50.826;6.896;2022-09-24T04:40:02;12.65;;;3.95;;
72132;SDS011;60008;50.826;6.896;2022-09-24T04:42:49;7.72;;;3.83;;
72132;SDS011;60008;50.826;6.896;2022-09-24T04:45:33;7.87;;;3.50;;
72132;SDS011;60008;50.826;6.896;2022-09-24T04:48:18;7.47;;;3.67;;
72132;SDS011;60008;50.826;6.896;2022-09-24T04:51:07;7.15;;;3.83;;
72132;SDS011;60008;50.826;6.896;2022-09-24T04:53:52;8.80;;;3.83;;
72132;SDS011;60008;50.826;6.896;2022-09-24T04:56:37;6.93;;;3.72;;
72132;SDS011;60008;50.826;6.896;2022-09-24T04:59:22;7.77;;;4.00;;
72132;SDS011;60008;50.826;6.896;2022-09-24T05:02:07;9.75;;;3.75;;
72132;SDS011;60008;50.826;6.896;2022-09-24T05:04:53;8.05;;;3.88;;
72132;SDS011;60008;50.826;6.896;2022-09-24T05:07:38;6.97;;;3.65;;
72132;SDS011;60008;50.826;6.896;2022-09-24T05:10:25;6.97;;;3.65;;
72132;SDS011;60008;50.826;6.896;2022-09-24T05:13:11;6.57;;;3.80;;
72132;SDS011;60008;50.826;6.896;2022-09-24T05:15:56;7.10;;;3.63;;
72132;SDS011;60008;50.826;6.896;2022-09-24T05:18:41;8.50;;;3.75;;
72132;SDS011;60008;50.826;6.896;2022-09-24T05:21:26;8.40;;;3.65;;
72132;SDS011;60008;50.826;6.896;2022-09-24T05:24:11;6.18;;;3.40;;
72132;SDS011;60008;50.826;6.896;2022-09-24T05:26:56;8.07;;;3.80;;
72132;SDS011;60008;50.826;6.896;2022-09-24T05:29:54;6.20;;;3.50;;
72132;SDS011;60008;50.826;6.896;2022-09-24T05:32:40;8.77;;;3.67;;
72132;SDS011;60008;50.826;6.896;2022-09-24T05:35:25;7.13;;;3.80;;
72132;SDS011;60008;50.826;6.896;2022-09-24T05:38:10;8.60;;;4.03;;
72132;SDS011;60008;50.826;6.896;2022-09-24T05:40:55;7.20;;;3.20;;
72132;SDS011;60008;50.826;6.896;2022-09-24T05:43:40;7.63;;;3.70;;
72132;SDS011;60008;50.826;6.896;2022-09-24T05:46:25;7.28;;;3.95;;
72132;SDS011;60008;50.826;6.896;2022-09-24T05:49:09;7.28;;;3.80;;
72132;SDS011;60008;50.826;6.896;2022-09-24T05:51:55;7.35;;;3.67;;
72132;SDS011;60008;50.826;6.896;2022-09-24T05:54:40;7.27;;;3.80;;
72132;SDS011;60008;50.826;6.896;2022-09-24T05:57:25;9.65;;;3.20;;
72132;SDS011;60008;50.826;6.896;2022-09-24T06:00:10;7.30;;;3.78;;
72132;SDS011;60008;50.826;6.896;2022-09-24T06:03:00;8.18;;;3.72;;
72132;SDS011;60008;50.826;6.896;2022-09-24T06:05:47;10.52;;;4.15;;
72132;SDS011;60008;50.826;6.896;2022-09-24T06:08:33;10.97;;;3.87;;
72132;SDS011;60008;50.826;6.896;2022-09-24T06:11:18;8.77;;;3.72;;
72132;SDS011;60008;50.826;6.896;2022-09-24T06:14:06;7.70;;;3.90;;
72132;SDS011;60008;50.826;6.896;2022-09-24T06:16:52;11.95;;;3.70;;
72132;SDS011;60008;50.826;6.896;2022-09-24T06:19:36;6.60;;;4.10;;
72132;SDS011;60008;50.826;6.896;2022-09-24T06:22:22;6.83;;;3.53;;
72132;SDS011;60008;50.826;6.896;2022-09-24T06:25:12;7.28;;;3.92;;
72132;SDS011;60008;50.826;6.896;2022-09-24T06:27:58;6.18;;;3.97;;
72132;SDS011;60008;50.826;6.896;2022-09-24T06:30:44;8.18;;;3.65;;
72132;SDS011;60008;50.826;6.896;2022-09-24T06:33:29;8.60;;;3.83;;
72132;SDS011;60008;50.826;6.896;2022-09-24T06:36:14;5.83;;;3.17;;
72132;SDS011;60008;50.826;6.896;2022-09-24T06:38:59;8.55;;;3.78;;
72132;SDS011;60008;50.826;6.896;2022-09-24T06:41:44;6.20;;;3.80;;
72132;SDS011;60008;50.826;6.896;2022-09-24T06:44:30;6.80;;;3.83;;
72132;SDS011;60008;50.826;6.896;2022-09-24T06:47:15;8.82;;;4.78;;
72132;SDS011;60008;50.826;6.896;2022-09-24T06:50:01;5.60;;;3.30;;
72132;SDS011;60008;50.826;6.896;2022-09-24T06:52:46;8.20;;;3.95;;
72132;SDS011;60008;50.826;6.896;2022-09-24T06:55:31;6.07;;;3.45;;
72132;SDS011;60008;50.826;6.896;2022-09-24T06:58:17;6.68;;;3.90;;
72132;SDS011;60008;50.826;6.896;2022-09-24T07:01:04;6.30;;;3.60;;
72132;SDS011;60008;50.826;6.896;2022-09-24T07:03:50;5.97;;;3.60;;
72132;SDS011;60008;50.826;6.896;2022-09-24T07:06:34;7.40;;;4.30;;
72132;SDS011;60008;50.826;6.896;2022-09-24T07:09:38;10.13;;;4.20;;
72132;SDS011;60008;50.826;6.896;2022-09-24T07:12:25;9.40;;;3.85;;
72132;SDS011;60008;50.826;6.896;2022-09-24T07:15:10;10.45;;;3.80;;
72132;SDS011;60008;50.826;6.896;2022-09-24T07:17:55;6.93;;;3.80;;
72132;SDS011;60008;50.826;6.896;2022-09-24T07:20:40;9.68;;;4.15;;
72132;SDS011;60008;50.826;6.896;2022-09-24T07:23:25;8.15;;;4.55;;
72132;SDS011;60008;50.826;6.896;2022-09-24T07:26:11;7.13;;;3.78;;
72132;SDS011;60008;50.826;6.896;2022-09-24T07:28:56;7.82;;;4.22;;
72132;SDS011;60008;50.826;6.896;2022-09-24T07:31:41;8.40;;;3.63;;
72132;SDS011;60008;50.826;6.896;2022-09-24T07:34:26;9.65;;;3.85;;
72132;SDS011;60008;50.826;6.896;2022-09-24T07:37:11;8.77;;;3.72;;
72132;SDS011;60008;50.826;6.896;2022-09-24T07:39:56;8.07;;;3.65;;
72132;SDS011;60008;50.826;6.896;2022-09-24T07:42:45;9.32;;;3.78;;
72132;SDS011;60008;50.826;6.896;2022-09-24T07:45:31;8.30;;;4.20;;
72132;SDS011;60008;50.826;6.896;2022-09-24T07:48:17;7.32;;;4.05;;
72132;SDS011;60008;50.826;6.896;2022-09-24T07:51:02;6.72;;;4.03;;
72132;SDS011;60008;50.826;6.896;2022-09-24T07:53:49;8.70;;;3.72;;
72132;SDS011;60008;50.826;6.896;2022-09-24T07:56:34;8.00;;;4.25;;
72132;SDS011;60008;50.826;6.896;2022-09-24T07:59:19;9.50;;;4.20;;
72132;SDS011;60008;50.826;6.896;2022-09-24T08:02:07;10.70;;;4.18;;
72132;SDS011;60008;50.826;6.896;2022-09-24T08:04:59;9.45;;;3.95;;
72132;SDS011;60008;50.826;6.896;2022-09-24T08:07:51;6.82;;;3.90;;
72132;SDS011;60008;50.826;6.896;2022-09-24T08:10:37;10.20;;;4.22;;
72132;SDS011;60008;50.826;6.896;2022-09-24T08:13:23;9.40;;;3.67;;
72132;SDS011;60008;50.826;6.896;2022-09-24T08:16:11;9.45;;;4.00;;
72132;SDS011;60008;50.826;6.896;2022-09-24T08:18:57;9.68;;;4.13;;
72132;SDS011;60008;50.826;6.896;2022-09-24T08:21:42;8.85;;;3.72;;
72132;SDS011;60008;50.826;6.896;2022-09-24T08:24:28;8.30;;;4.40;;
72132;SDS011;60008;50.826;6.896;2022-09-24T08:27:12;11.60;;;3.97;;
72132;SDS011;60008;50.826;6.896;2022-09-24T08:30:01;10.18;;;4.95;;
72132;SDS011;60008;50.826;6.896;2022-09-24T08:32:46;10.20;;;4.05;;
72132;SDS011;60008;50.826;6.896;2022-09-24T08:35:32;16.55;;;4.70;;
72132;SDS011;60008;50.826;6.896;2022-09-24T08:38:18;8.38;;;4.40;;
72132;SDS011;60008;50.826;6.896;2022-09-24T08:46:52;7.00;;;4.05;;
72132;SDS011;60008;50.826;6.896;2022-09-24T08:50:16;9.10;;;4.47;;
72132;SDS011;60008;50.826;6.896;2022-09-24T08:53:11;11.45;;;5.38;;
72132;SDS011;60008;50.826;6.896;2022-09-24T08:56:04;9.03;;;4.83;;
72132;SDS011;60008;50.826;6.896;2022-09-24T08:59:00;8.07;;;4.47;;
72132;SDS011;60008;50.826;6.896;2022-09-24T09:01:52;7.50;;;4.53;;
72132;SDS011;60008;50.826;6.896;2022-09-24T09:08:07;13.93;;;5.32;;
72132;SDS011;60008;50.826;6.896;2022-09-24T09:11:21;12.37;;;5.10;;
72132;SDS011;60008;50.826;6.896;2022-09-24T09:14:16;9.35;;;5.25;;
72132;SDS011;60008;50.826;6.896;2022-09-24T09:20:22;10.02;;;5.45;;
72132;SDS011;60008;50.826;6.896;2022-09-24T09:23:12;12.65;;;6.70;;
72132;SDS011;60008;50.826;6.896;2022-09-24T09:26:02;12.63;;;6.40;;
72132;SDS011;60008;50.826;6.896;2022-09-24T09:28:51;11.32;;;6.28;;
72132;SDS011;60008;50.826;6.896;2022-09-24T09:31:53;17.13;;;7.05;;
72132;SDS011;60008;50.826;6.896;2022-09-24T09:38:11;14.13;;;6.95;;
72132;SDS011;60008;50.826;6.896;2022-09-24T09:41:17;11.40;;;6.33;;
72132;SDS011;60008;50.826;6.896;2022-09-24T09:44:15;12.60;;;7.07;;
72132;SDS011;60008;50.826;6.896;2022-09-24T09:47:10;13.50;;;7.70;;
72132;SDS011;60008;50.826;6.896;2022-09-24T09:50:36;13.52;;;7.43;;
72132;SDS011;60008;50.826;6.896;2022-09-24T09:53:26;13.88;;;7.90;;
72132;SDS011;60008;50.826;6.896;2022-09-24T09:56:12;16.63;;;7.60;;
72132;SDS011;60008;50.826;6.896;2022-09-24T09:59:39;13.93;;;7.80;;
72132;SDS011;60008;50.826;6.896;2022-09-24T10:02:17;14.90;;;7.20;;
72132;SDS011;60008;50.826;6.896;2022-09-24T10:05:17;15.45;;;8.40;;
72132;SDS011;60008;50.826;6.896;2022-09-24T10:08:23;18.90;;;8.73;;
72132;SDS011;60008;50.826;6.896;2022-09-24T10:11:12;16.33;;;8.43;;
72132;SDS011;60008;50.826;6.896;2022-09-24T10:14:03;23.10;;;8.63;;
72132;SDS011;60008;50.826;6.896;2022-09-24T10:16:51;16.55;;;8.70;;
72132;SDS011;60008;50.826;6.896;2022-09-24T10:19:38;17.60;;;8.50;;
72132;SDS011;60008;50.826;6.896;2022-09-24T10:22:27;22.08;;;8.88;;
72132;SDS011;60008;50.826;6.896;2022-09-24T10:25:24;18.00;;;8.70;;
72132;SDS011;60008;50.826;6.896;2022-09-24T10:28:13;14.50;;;7.88;;
72132;SDS011;60008;50.826;6.896;2022-09-24T10:31:23;19.30;;;8.85;;
72132;SDS011;60008;50.826;6.896;2022-09-24T10:34:17;18.83;;;10.82;;
72132;SDS011;60008;50.826;6.896;2022-09-24T10:37:14;19.05;;;9.10;;
72132;SDS011;60008;50.826;6.896;2022-09-24T10:40:12;18.97;;;9.97;;
72132;SDS011;60008;50.826;6.896;2022-09-24T10:43:02;23.50;;;11.63;;
72132;SDS011;60008;50.826;6.896;2022-09-24T10:48:43;18.60;;;10.10;;
72132;SDS011;60008;50.826;6.896;2022-09-24T10:51:45;22.92;;;12.15;;
72132;SDS011;60008;50.826;6.896;2022-09-24T10:54:56;18.13;;;10.50;;
72132;SDS011;60008;50.826;6.896;2022-09-24T10:58:14;23.08;;;11.32;;
72132;SDS011;60008;50.826;6.896;2022-09-24T11:01:22;22.42;;;12.18;;
72132;SDS011;60008;50.826;6.896;2022-09-24T11:07:27;23.92;;;12.30;;
72132;SDS011;60008;50.826;6.896;2022-09-24T11:13:56;25.73;;;14.20;;
72132;SDS011;60008;50.826;6.896;2022-09-24T11:17:22;26.92;;;15.55;;
72132;SDS011;60008;50.826;6.896;2022-09-24T11:20:26;31.23;;;16.30;;
72132;SDS011;60008;50.826;6.896;2022-09-24T11:26:34;29.90;;;15.03;;
72132;SDS011;60008;50.826;6.896;2022-09-24T11:32:58;22.25;;;13.02;;
72132;SDS011;60008;50.826;6.896;2022-09-24T11:39:15;23.33;;;11.43;;
72132;SDS011;60008;50.826;6.896;2022-09-24T11:42:15;19.60;;;10.83;;
72132;SDS011;60008;50.826;6.896;2022-09-24T11:45:14;19.17;;;9.90;;
72132;SDS011;60008;50.826;6.896;2022-09-24T11:48:17;17.98;;;9.57;;
72132;SDS011;60008;50.826;6.896;2022-09-24T11:51:21;14.10;;;8.32;;
72132;SDS011;60008;50.826;6.896;2022-09-24T11:57:39;14.23;;;7.77;;
72132;SDS011;60008;50.826;6.896;2022-09-24T12:00:29;16.35;;;8.32;;
72132;SDS011;60008;50.826;6.896;2022-09-24T12:03:42;17.73;;;8.50;;
72132;SDS011;60008;50.826;6.896;2022-09-24T12:06:36;14.10;;;7.60;;
72132;SDS011;60008;50.826;6.896;2022-09-24T12:12:31;13.80;;;7.30;;
72132;SDS011;60008;50.826;6.896;2022-09-24T12:15:22;13.93;;;7.20;;
72132;SDS011;60008;50.826;6.896;2022-09-24T12:18:13;15.13;;;7.32;;
72132;SDS011;60008;50.826;6.896;2022-09-24T12:21:07;15.52;;;8.07;;
72132;SDS011;60008;50.826;6.896;2022-09-24T12:23:59;14.68;;;8.15;;
72132;SDS011;60008;50.826;6.896;2022-09-24T12:26:48;14.13;;;7.23;;
72132;SDS011;60008;50.826;6.896;2022-09-24T12:33:12;12.73;;;6.72;;
72132;SDS011;60008;50.826;6.896;2022-09-24T12:36:11;14.07;;;7.35;;
72132;SDS011;60008;50.826;6.896;2022-09-24T12:39:05;17.02;;;6.85;;
72132;SDS011;60008;50.826;6.896;2022-09-24T12:41:58;14.03;;;7.10;;
72132;SDS011;60008;50.826;6.896;2022-09-24T12:44:52;13.73;;;7.28;;
72132;SDS011;60008;50.826;6.896;2022-09-24T12:47:45;21.65;;;6.88;;
72132;SDS011;60008;50.826;6.896;2022-09-24T12:50:34;15.70;;;7.90;;
72132;SDS011;60008;50.826;6.896;2022-09-24T12:53:22;14.35;;;6.97;;
72132;SDS011;60008;50.826;6.896;2022-09-24T12:56:11;12.80;;;6.70;;
72132;SDS011;60008;50.826;6.896;2022-09-24T12:58:56;13.18;;;7.10;;
72132;SDS011;60008;50.826;6.896;2022-09-24T13:01:42;16.63;;;7.63;;
72132;SDS011;60008;50.826;6.896;2022-09-24T13:04:27;14.48;;;7.32;;
72132;SDS011;60008;50.826;6.896;2022-09-24T13:10:51;11.83;;;6.13;;
72132;SDS011;60008;50.826;6.896;2022-09-24T13:13:44;12.18;;;6.90;;
72132;SDS011;60008;50.826;6.896;2022-09-24T13:16:30;14.40;;;7.20;;
72132;SDS011;60008;50.826;6.896;2022-09-24T13:19:34;16.13;;;7.53;;
72132;SDS011;60008;50.826;6.896;2022-09-24T13:22:26;14.98;;;7.90;;
72132;SDS011;60008;50.826;6.896;2022-09-24T13:25:20;12.57;;;6.90;;
72132;SDS011;60008;50.826;6.896;2022-09-24T13:28:23;12.65;;;6.38;;
72132;SDS011;60008;50.826;6.896;2022-09-24T13:34:27;15.70;;;6.35;;
72132;SDS011;60008;50.826;6.896;2022-09-24T13:37:16;12.68;;;6.72;;
72132;SDS011;60008;50.826;6.896;2022-09-24T13:40:05;11.30;;;6.03;;
72132;SDS011;60008;50.826;6.896;2022-09-24T13:43:02;12.60;;;6.60;;
72132;SDS011;60008;50.826;6.896;2022-09-24T13:45:51;11.98;;;6.40;;
72132;SDS011;60008;50.826;6.896;2022-09-24T13:48:37;11.60;;;6.40;;
72132;SDS011;60008;50.826;6.896;2022-09-24T13:51:28;11.23;;;5.35;;
72132;SDS011;60008;50.826;6.896;2022-09-24T13:54:25;13.13;;;6.37;;
72132;SDS011;60008;50.826;6.896;2022-09-24T13:57:25;10.70;;;6.07;;
72132;SDS011;60008;50.826;6.896;2022-09-24T14:03:16;10.98;;;6.20;;
72132;SDS011;60008;50.826;6.896;2022-09-24T14:06:13;12.88;;;5.90;;
72132;SDS011;60008;50.826;6.896;2022-09-24T14:09:00;10.63;;;6.10;;
72132;SDS011;60008;50.826;6.896;2022-09-24T14:11:49;15.88;;;6.38;;
72132;SDS011;60008;50.826;6.896;2022-09-24T14:14:35;11.77;;;5.88;;
72132;SDS011;60008;50.826;6.896;2022-09-24T14:17:20;13.18;;;5.88;;
72132;SDS011;60008;50.826;6.896;2022-09-24T14:20:05;9.93;;;5.57;;
72132;SDS011;60008;50.826;6.896;2022-09-24T14:22:56;12.67;;;6.07;;
72132;SDS011;60008;50.826;6.896;2022-09-24T14:25:41;10.23;;;5.93;;
72132;SDS011;60008;50.826;6.896;2022-09-24T14:28:27;11.80;;;7.00;;
72132;SDS011;60008;50.826;6.896;2022-09-24T14:31:16;11.38;;;6.25;;
72132;SDS011;60008;50.826;6.896;2022-09-24T14:34:01;10.27;;;5.95;;
72132;SDS011;60008;50.826;6.896;2022-09-24T14:36:48;13.53;;;6.03;;
72132;SDS011;60008;50.826;6.896;2022-09-24T14:39:37;12.40;;;6.18;;
72132;SDS011;60008;50.826;6.896;2022-09-24T14:42:28;11.02;;;5.65;;
72132;SDS011;60008;50.826;6.896;2022-09-24T14:45:23;10.88;;;5.72;;
72132;SDS011;60008;50.826;6.896;2022-09-24T14:48:29;12.40;;;6.25;;
72132;SDS011;60008;50.826;6.896;2022-09-24T14:51:22;11.80;;;5.70;;
72132;SDS011;60008;50.826;6.896;2022-09-24T15:00:00;13.23;;;6.90;;
72132;SDS011;60008;50.826;6.896;2022-09-24T15:02:47;13.25;;;6.45;;
72132;SDS011;60008;50.826;6.896;2022-09-24T15:05:35;12.77;;;6.20;;
72132;SDS011;60008;50.826;6.896;2022-09-24T15:11:15;13.32;;;7.50;;
72132;SDS011;60008;50.826;6.896;2022-09-24T15:14:10;12.98;;;7.28;;
72132;SDS011;60008;50.826;6.896;2022-09-24T15:17:17;17.30;;;8.38;;
72132;SDS011;60008;50.826;6.896;2022-09-24T15:20:05;16.60;;;9.13;;
72132;SDS011;60008;50.826;6.896;2022-09-24T15:22:50;14.18;;;8.48;;
72132;SDS011;60008;50.826;6.896;2022-09-24T15:25:35;16.05;;;9.30;;
72132;SDS011;60008;50.826;6.896;2022-09-24T15:28:20;17.80;;;9.10;;
72132;SDS011;60008;50.826;6.896;2022-09-24T15:31:06;15.23;;;8.90;;
72132;SDS011;60008;50.826;6.896;2022-09-24T15:33:51;15.37;;;8.77;;
72132;SDS011;60008;50.826;6.896;2022-09-24T15:36:36;16.00;;;8.38;;
72132;SDS011;60008;50.826;6.896;2022-09-24T15:39:22;18.25;;;9.43;;
72132;SDS011;60008;50.826;6.896;2022-09-24T15:42:09;22.27;;;9.65;;
72132;SDS011;60008;50.826;6.896;2022-09-24T15:44:54;23.65;;;11.30;;
72132;SDS011;60008;50.826;6.896;2022-09-24T15:47:41;19.10;;;10.03;;
72132;SDS011;60008;50.826;6.896;2022-09-24T15:50:26;20.00;;;9.15;;
72132;SDS011;60008;50.826;6.896;2022-09-24T15:53:16;23.23;;;10.68;;
72132;SDS011;60008;50.826;6.896;2022-09-24T15:56:05;23.83;;;13.70;;
72132;SDS011;60008;50.826;6.896;2022-09-24T15:58:51;20.90;;;10.45;;
72132;SDS011;60008;50.826;6.896;2022-09-24T16:01:36;19.30;;;10.67;;
72132;SDS011;60008;50.826;6.896;2022-09-24T16:04:21;22.25;;;12.45;;
72132;SDS011;60008;50.826;6.896;2022-09-24T16:07:06;21.73;;;12.75;;
72132;SDS011;60008;50.826;6.896;2022-09-24T16:09:51;18.67;;;10.32;;
72132;SDS011;60008;50.826;6.896;2022-09-24T16:12:36;17.95;;;10.02;;
72132;SDS011;60008;50.826;6.896;2022-09-24T16:15:22;20.37;;;10.37;;
72132;SDS011;60008;50.826;6.896;2022-09-24T16:18:11;20.85;;;10.65;;
72132;SDS011;60008;50.826;6.896;2022-09-24T16:20:58;18.67;;;10.43;;
72132;SDS011;60008;50.826;6.896;2022-09-24T16:23:43;18.85;;;10.02;;
72132;SDS011;60008;50.826;6.896;2022-09-24T16:26:28;19.42;;;10.27;;
72132;SDS011;60008;50.826;6.896;2022-09-24T16:29:13;20.23;;;10.73;;
72132;SDS011;60008;50.826;6.896;2022-09-24T16:31:58;24.02;;;11.88;;
72132;SDS011;60008;50.826;6.896;2022-09-24T16:34:46;27.02;;;14.15;;
72132;SDS011;60008;50.826;6.896;2022-09-24T16:37:30;22.42;;;12.75;;
72132;SDS011;60008;50.826;6.896;2022-09-24T16:40:16;20.08;;;12.50;;
72132;SDS011;60008;50.826;6.896;2022-09-24T16:43:01;25.07;;;12.53;;
72132;SDS011;60008;50.826;6.896;2022-09-24T16:45:46;22.25;;;11.90;;
72132;SDS011;60008;50.826;6.896;2022-09-24T16:48:31;21.00;;;11.65;;
72132;SDS011;60008;50.826;6.896;2022-09-24T16:51:16;21.05;;;10.32;;
72132;SDS011;60008;50.826;6.896;2022-09-24T16:54:02;20.77;;;11.30;;
72132;SDS011;60008;50.826;6.896;2022-09-24T16:56:49;22.27;;;11.00;;
72132;SDS011;60008;50.826;6.896;2022-09-24T16:59:35;21.95;;;11.93;;
72132;SDS011;60008;50.826;6.896;2022-09-24T17:02:20;23.33;;;11.63;;
72132;SDS011;60008;50.826;6.896;2022-09-24T17:05:05;22.95;;;10.77;;
72132;SDS011;60008;50.826;6.896;2022-09-24T17:07:51;22.50;;;11.10;;
72132;SDS011;60008;50.826;6.896;2022-09-24T17:10:35;23.90;;;12.67;;
72132;SDS011;60008;50.826;6.896;2022-09-24T17:13:26;19.60;;;10.60;;
72132;SDS011;60008;50.826;6.896;2022-09-24T17:16:11;19.63;;;10.57;;
72132;SDS011;60008;50.826;6.896;2022-09-24T17:18:57;19.98;;;10.52;;
72132;SDS011;60008;50.826;6.896;2022-09-24T17:21:43;18.88;;;10.45;;
72132;SDS011;60008;50.826;6.896;2022-09-24T17:24:29;18.63;;;11.07;;
72132;SDS011;60008;50.826;6.896;2022-09-24T17:27:15;23.33;;;11.75;;
72132;SDS011;60008;50.826;6.896;2022-09-24T17:30:03;23.70;;;12.27;;
72132;SDS011;60008;50.826;6.896;2022-09-24T17:32:50;19.48;;;10.05;;
72132;SDS011;60008;50.826;6.896;2022-09-24T17:35:35;19.73;;;9.05;;
72132;SDS011;60008;50.826;6.896;2022-09-24T17:38:20;15.07;;;8.53;;
72132;SDS011;60008;50.826;6.896;2022-09-24T17:41:10;16.15;;;8.20;;
72132;SDS011;60008;50.826;6.896;2022-09-24T17:43:57;15.32;;;7.22;;
72132;SDS011;60008;50.826;6.896;2022-09-24T17:46:43;11.90;;;7.28;;
72132;SDS011;60008;50.826;6.896;2022-09-24T17:49:28;12.45;;;7.20;;
72132;SDS011;60008;50.826;6.896;2022-09-24T17:52:14;9.70;;;5.73;;
72132;SDS011;60008;50.826;6.896;2022-09-24T17:55:00;13.50;;;6.57;;
72132;SDS011;60008;50.826;6.896;2022-09-24T17:57:44;14.85;;;7.10;;
72132;SDS011;60008;50.826;6.896;2022-09-24T18:00:29;18.02;;;8.25;;
72132;SDS011;60008;50.826;6.896;2022-09-24T18:03:15;15.73;;;8.82;;
72132;SDS011;60008;50.826;6.896;2022-09-24T18:06:01;14.60;;;8.90;;
72132;SDS011;60008;50.826;6.896;2022-09-24T18:08:47;13.88;;;8.13;;
72132;SDS011;60008;50.826;6.896;2022-09-24T18:14:28;18.83;;;7.25;;